Pagina principale
METAR-TAF:

METAR-TAF

Aeroporti :

Aeroporto Internazionale di Larnaca

Larnaca, Cipro

latitudine: 34-53N, longitudine: 033-38E, altezza: 2 m

Osservazione

Il bollettino è stato emesso 31 minuti fa, alle 23:00 UTC
Vento 5 kt da ovest/nord-ovest
Temperature 21°C
Umidità 78%
Pressione 1015 hPa
Visibilità 10 km o più
nessuna nube inferiore a 1500 m e nessun cumulonembo

METAR: LCLK 152300Z 29005KT CAVOK 21/17 Q1015 NOSIG

Ora: 02:31 (23:31 UTC)

Previsione

Il bollettino è stato emesso 6 ore e 1 minuti fa, alle 17:30 UTC
Previsione valida dal 15 alle 18 UTC al 16 alle 18 UTC
Vento 5 kt da nord-ovest
Visibilità 10 km o più
Poco nuvoloso ad un'altezza di 2000 ft
Evoluzione graduale
dal 16 alle 09 UTC al 16 alle 12 UTC
Vento 11 kt da sud
Evoluzione graduale
dal 16 alle 15 UTC al 16 alle 18 UTC
Vento 5 kt da ovest/nord-ovest

TAF: LCLK 151730Z 1518/1618 31005KT 9999 FEW020 BECMG 1609/1612 18011KT BECMG 1615/1618 30005KT

Osservazioni e previsioni meteorologiche di più di 4000 aeroporti (messaggi METAR e TAF).

Le stazioni disponibili sono rappresentate dai dischi gialli e rossi sulla carta.

Puntare il mouse per vedere il nome della stazione.

Clicca sopra per visualizzare le osservazioni e previsioni meteorologiche.

Per cambiare la mappa : fare clic sui pulsanti verdi con una croce nera per ingrandire, il pulsante verde con un trattino per diminuire, o sulla freccia verde per le mappe adiacenti.


METAR-TAF: